sensor_id;sensor_type;location;lat;lon;timestamp;P1;durP1;ratioP1;P2;durP2;ratioP2
73454;SDS011;61690;51.824;6.306;2023-11-21T00:00:32;3.30;;;0.70;;
73454;SDS011;61690;51.824;6.306;2023-11-21T00:02:57;3.40;;;0.80;;
73454;SDS011;61690;51.824;6.306;2023-11-21T00:05:22;3.57;;;0.80;;
73454;SDS011;61690;51.824;6.306;2023-11-21T00:07:48;3.13;;;0.80;;
73454;SDS011;61690;51.824;6.306;2023-11-21T00:10:13;2.80;;;0.63;;
73454;SDS011;61690;51.824;6.306;2023-11-21T00:12:39;3.20;;;0.60;;
73454;SDS011;61690;51.824;6.306;2023-11-21T00:15:07;3.33;;;0.80;;
73454;SDS011;61690;51.824;6.306;2023-11-21T00:17:35;3.27;;;0.70;;
73454;SDS011;61690;51.824;6.306;2023-11-21T00:20:01;3.83;;;0.90;;
73454;SDS011;61690;51.824;6.306;2023-11-21T00:22:27;3.30;;;0.90;;
73454;SDS011;61690;51.824;6.306;2023-11-21T00:24:52;3.40;;;0.87;;
73454;SDS011;61690;51.824;6.306;2023-11-21T00:27:17;3.40;;;1.00;;
73454;SDS011;61690;51.824;6.306;2023-11-21T00:29:42;3.28;;;0.70;;
73454;SDS011;61690;51.824;6.306;2023-11-21T00:32:08;4.20;;;0.97;;
73454;SDS011;61690;51.824;6.306;2023-11-21T00:34:34;3.60;;;0.97;;
73454;SDS011;61690;51.824;6.306;2023-11-21T00:36:59;3.15;;;0.70;;
73454;SDS011;61690;51.824;6.306;2023-11-21T00:39:25;3.37;;;0.80;;
73454;SDS011;61690;51.824;6.306;2023-11-21T00:41:51;4.72;;;0.80;;
73454;SDS011;61690;51.824;6.306;2023-11-21T00:44:17;3.60;;;0.98;;
73454;SDS011;61690;51.824;6.306;2023-11-21T00:46:43;3.57;;;0.83;;
73454;SDS011;61690;51.824;6.306;2023-11-21T00:49:08;3.13;;;0.80;;
73454;SDS011;61690;51.824;6.306;2023-11-21T00:51:33;3.70;;;0.80;;
73454;SDS011;61690;51.824;6.306;2023-11-21T00:53:59;3.17;;;0.80;;
73454;SDS011;61690;51.824;6.306;2023-11-21T00:56:25;3.38;;;0.70;;
73454;SDS011;61690;51.824;6.306;2023-11-21T00:58:50;3.20;;;0.73;;
73454;SDS011;61690;51.824;6.306;2023-11-21T01:01:17;3.60;;;0.90;;
73454;SDS011;61690;51.824;6.306;2023-11-21T01:03:43;3.38;;;0.80;;
73454;SDS011;61690;51.824;6.306;2023-11-21T01:06:08;3.17;;;0.80;;
73454;SDS011;61690;51.824;6.306;2023-11-21T01:08:34;3.67;;;1.00;;
73454;SDS011;61690;51.824;6.306;2023-11-21T01:10:59;3.63;;;0.73;;
73454;SDS011;61690;51.824;6.306;2023-11-21T01:13:24;2.97;;;0.70;;
73454;SDS011;61690;51.824;6.306;2023-11-21T01:15:54;2.90;;;0.70;;
73454;SDS011;61690;51.824;6.306;2023-11-21T01:18:19;3.10;;;0.70;;
73454;SDS011;61690;51.824;6.306;2023-11-21T01:20:45;3.50;;;0.93;;
73454;SDS011;61690;51.824;6.306;2023-11-21T01:23:12;4.07;;;0.70;;
73454;SDS011;61690;51.824;6.306;2023-11-21T01:25:40;3.10;;;0.77;;
73454;SDS011;61690;51.824;6.306;2023-11-21T01:28:05;4.30;;;0.90;;
73454;SDS011;61690;51.824;6.306;2023-11-21T01:30:31;2.90;;;0.80;;
73454;SDS011;61690;51.824;6.306;2023-11-21T01:32:57;3.20;;;0.90;;
73454;SDS011;61690;51.824;6.306;2023-11-21T01:35:23;2.87;;;0.60;;
73454;SDS011;61690;51.824;6.306;2023-11-21T01:37:48;2.47;;;0.50;;
73454;SDS011;61690;51.824;6.306;2023-11-21T01:40:13;3.88;;;0.70;;
73454;SDS011;61690;51.824;6.306;2023-11-21T01:42:39;3.40;;;0.70;;
73454;SDS011;61690;51.824;6.306;2023-11-21T01:45:05;3.08;;;0.70;;
73454;SDS011;61690;51.824;6.306;2023-11-21T01:47:34;2.63;;;0.43;;
73454;SDS011;61690;51.824;6.306;2023-11-21T01:50:01;3.10;;;0.57;;
73454;SDS011;61690;51.824;6.306;2023-11-21T01:52:29;3.25;;;0.80;;
73454;SDS011;61690;51.824;6.306;2023-11-21T01:54:55;3.42;;;0.70;;
73454;SDS011;61690;51.824;6.306;2023-11-21T01:57:20;3.00;;;0.90;;
73454;SDS011;61690;51.824;6.306;2023-11-21T01:59:46;3.10;;;0.70;;
73454;SDS011;61690;51.824;6.306;2023-11-21T02:02:13;2.60;;;0.80;;
73454;SDS011;61690;51.824;6.306;2023-11-21T02:04:38;3.10;;;0.80;;
73454;SDS011;61690;51.824;6.306;2023-11-21T02:07:04;3.13;;;0.70;;
73454;SDS011;61690;51.824;6.306;2023-11-21T02:09:33;3.07;;;0.70;;
73454;SDS011;61690;51.824;6.306;2023-11-21T02:11:59;3.42;;;0.90;;
73454;SDS011;61690;51.824;6.306;2023-11-21T02:14:25;4.38;;;1.10;;
73454;SDS011;61690;51.824;6.306;2023-11-21T02:16:52;3.55;;;0.82;;
73454;SDS011;61690;51.824;6.306;2023-11-21T02:19:19;3.50;;;0.80;;
73454;SDS011;61690;51.824;6.306;2023-11-21T02:21:47;3.13;;;0.70;;
73454;SDS011;61690;51.824;6.306;2023-11-21T02:24:14;3.47;;;0.70;;
73454;SDS011;61690;51.824;6.306;2023-11-21T02:26:42;2.97;;;0.70;;
73454;SDS011;61690;51.824;6.306;2023-11-21T02:29:07;2.90;;;0.60;;
73454;SDS011;61690;51.824;6.306;2023-11-21T02:31:35;3.15;;;0.60;;
73454;SDS011;61690;51.824;6.306;2023-11-21T02:34:02;4.00;;;0.90;;
73454;SDS011;61690;51.824;6.306;2023-11-21T02:36:28;3.00;;;0.60;;
73454;SDS011;61690;51.824;6.306;2023-11-21T02:38:53;3.10;;;0.90;;
73454;SDS011;61690;51.824;6.306;2023-11-21T02:41:18;2.93;;;0.80;;
73454;SDS011;61690;51.824;6.306;2023-11-21T02:43:44;3.20;;;0.80;;
73454;SDS011;61690;51.824;6.306;2023-11-21T02:46:09;3.30;;;0.70;;
73454;SDS011;61690;51.824;6.306;2023-11-21T02:48:34;3.00;;;0.70;;
73454;SDS011;61690;51.824;6.306;2023-11-21T02:51:00;3.20;;;0.80;;
73454;SDS011;61690;51.824;6.306;2023-11-21T02:53:26;2.93;;;0.73;;
73454;SDS011;61690;51.824;6.306;2023-11-21T02:55:51;3.10;;;0.80;;
73454;SDS011;61690;51.824;6.306;2023-11-21T02:58:17;3.60;;;0.90;;
73454;SDS011;61690;51.824;6.306;2023-11-21T03:00:42;2.43;;;0.50;;
73454;SDS011;61690;51.824;6.306;2023-11-21T03:03:07;3.00;;;0.60;;
73454;SDS011;61690;51.824;6.306;2023-11-21T03:05:33;3.25;;;0.68;;
73454;SDS011;61690;51.824;6.306;2023-11-21T03:08:00;3.00;;;0.73;;
73454;SDS011;61690;51.824;6.306;2023-11-21T03:10:25;2.58;;;0.60;;
73454;SDS011;61690;51.824;6.306;2023-11-21T03:12:52;2.87;;;0.70;;
73454;SDS011;61690;51.824;6.306;2023-11-21T03:15:17;3.40;;;0.80;;
73454;SDS011;61690;51.824;6.306;2023-11-21T03:17:43;3.57;;;0.70;;
73454;SDS011;61690;51.824;6.306;2023-11-21T03:20:08;3.20;;;0.90;;
73454;SDS011;61690;51.824;6.306;2023-11-21T03:22:35;3.50;;;0.82;;
73454;SDS011;61690;51.824;6.306;2023-11-21T03:25:01;2.77;;;0.70;;
73454;SDS011;61690;51.824;6.306;2023-11-21T03:27:26;3.00;;;0.70;;
73454;SDS011;61690;51.824;6.306;2023-11-21T03:29:52;3.10;;;0.60;;
73454;SDS011;61690;51.824;6.306;2023-11-21T03:32:17;2.90;;;0.67;;
73454;SDS011;61690;51.824;6.306;2023-11-21T03:34:56;2.97;;;0.70;;
73454;SDS011;61690;51.824;6.306;2023-11-21T03:37:23;2.92;;;0.57;;
73454;SDS011;61690;51.824;6.306;2023-11-21T03:39:49;2.60;;;0.70;;
73454;SDS011;61690;51.824;6.306;2023-11-21T03:42:15;3.03;;;0.60;;
73454;SDS011;61690;51.824;6.306;2023-11-21T03:44:40;3.17;;;0.60;;
73454;SDS011;61690;51.824;6.306;2023-11-21T03:47:05;3.13;;;0.70;;
73454;SDS011;61690;51.824;6.306;2023-11-21T03:49:31;2.90;;;0.70;;
73454;SDS011;61690;51.824;6.306;2023-11-21T03:51:56;3.13;;;0.70;;
73454;SDS011;61690;51.824;6.306;2023-11-21T03:54:21;3.20;;;0.90;;
73454;SDS011;61690;51.824;6.306;2023-11-21T03:56:47;2.57;;;0.50;;
73454;SDS011;61690;51.824;6.306;2023-11-21T03:59:12;2.97;;;0.70;;
73454;SDS011;61690;51.824;6.306;2023-11-21T04:01:37;2.93;;;0.73;;
73454;SDS011;61690;51.824;6.306;2023-11-21T04:04:02;2.73;;;0.80;;
73454;SDS011;61690;51.824;6.306;2023-11-21T04:06:29;2.90;;;0.60;;
73454;SDS011;61690;51.824;6.306;2023-11-21T04:08:54;3.10;;;0.70;;
73454;SDS011;61690;51.824;6.306;2023-11-21T04:11:19;3.13;;;0.77;;
73454;SDS011;61690;51.824;6.306;2023-11-21T04:13:45;2.83;;;0.60;;
73454;SDS011;61690;51.824;6.306;2023-11-21T04:16:11;3.10;;;0.57;;
73454;SDS011;61690;51.824;6.306;2023-11-21T04:18:37;2.80;;;0.60;;
73454;SDS011;61690;51.824;6.306;2023-11-21T04:21:04;2.35;;;0.50;;
73454;SDS011;61690;51.824;6.306;2023-11-21T04:23:30;2.67;;;0.50;;
73454;SDS011;61690;51.824;6.306;2023-11-21T04:25:58;2.45;;;0.60;;
73454;SDS011;61690;51.824;6.306;2023-11-21T04:28:23;3.10;;;0.63;;
73454;SDS011;61690;51.824;6.306;2023-11-21T04:30:49;2.90;;;0.70;;
73454;SDS011;61690;51.824;6.306;2023-11-21T04:33:15;3.15;;;0.80;;
73454;SDS011;61690;51.824;6.306;2023-11-21T04:35:41;2.50;;;0.67;;
73454;SDS011;61690;51.824;6.306;2023-11-21T04:38:06;3.10;;;0.70;;
73454;SDS011;61690;51.824;6.306;2023-11-21T04:40:31;2.90;;;0.80;;
73454;SDS011;61690;51.824;6.306;2023-11-21T04:42:56;2.70;;;0.57;;
73454;SDS011;61690;51.824;6.306;2023-11-21T04:45:22;2.83;;;0.70;;
73454;SDS011;61690;51.824;6.306;2023-11-21T04:47:47;3.80;;;0.90;;
73454;SDS011;61690;51.824;6.306;2023-11-21T04:50:13;3.10;;;0.80;;
73454;SDS011;61690;51.824;6.306;2023-11-21T04:52:38;3.00;;;0.63;;
73454;SDS011;61690;51.824;6.306;2023-11-21T04:55:04;2.77;;;0.50;;
73454;SDS011;61690;51.824;6.306;2023-11-21T04:57:31;2.92;;;0.80;;
73454;SDS011;61690;51.824;6.306;2023-11-21T04:59:57;2.90;;;0.80;;
73454;SDS011;61690;51.824;6.306;2023-11-21T05:02:22;2.80;;;0.70;;
73454;SDS011;61690;51.824;6.306;2023-11-21T05:04:48;2.65;;;0.63;;
73454;SDS011;61690;51.824;6.306;2023-11-21T05:07:13;3.63;;;0.80;;
73454;SDS011;61690;51.824;6.306;2023-11-21T05:09:42;3.03;;;0.80;;
73454;SDS011;61690;51.824;6.306;2023-11-21T05:12:11;3.15;;;0.73;;
73454;SDS011;61690;51.824;6.306;2023-11-21T05:14:37;3.30;;;0.60;;
73454;SDS011;61690;51.824;6.306;2023-11-21T05:17:02;3.23;;;1.00;;
73454;SDS011;61690;51.824;6.306;2023-11-21T05:19:29;2.88;;;0.50;;
73454;SDS011;61690;51.824;6.306;2023-11-21T05:21:54;2.80;;;0.60;;
73454;SDS011;61690;51.824;6.306;2023-11-21T05:24:20;2.97;;;0.50;;
73454;SDS011;61690;51.824;6.306;2023-11-21T05:26:45;3.50;;;0.70;;
73454;SDS011;61690;51.824;6.306;2023-11-21T05:29:10;3.20;;;0.90;;
73454;SDS011;61690;51.824;6.306;2023-11-21T05:31:36;3.65;;;0.90;;
73454;SDS011;61690;51.824;6.306;2023-11-21T05:34:01;2.87;;;0.80;;
73454;SDS011;61690;51.824;6.306;2023-11-21T05:36:27;3.13;;;0.77;;
73454;SDS011;61690;51.824;6.306;2023-11-21T05:38:52;3.10;;;1.00;;
73454;SDS011;61690;51.824;6.306;2023-11-21T05:41:17;3.65;;;0.80;;
73454;SDS011;61690;51.824;6.306;2023-11-21T05:43:42;3.57;;;1.00;;
73454;SDS011;61690;51.824;6.306;2023-11-21T05:46:08;3.40;;;0.90;;
73454;SDS011;61690;51.824;6.306;2023-11-21T05:48:34;3.53;;;1.00;;
73454;SDS011;61690;51.824;6.306;2023-11-21T05:51:02;3.33;;;0.80;;
73454;SDS011;61690;51.824;6.306;2023-11-21T05:53:29;2.90;;;0.82;;
73454;SDS011;61690;51.824;6.306;2023-11-21T05:55:54;3.10;;;0.70;;
73454;SDS011;61690;51.824;6.306;2023-11-21T05:58:20;3.17;;;0.90;;
73454;SDS011;61690;51.824;6.306;2023-11-21T06:00:45;3.07;;;0.97;;
73454;SDS011;61690;51.824;6.306;2023-11-21T06:03:10;3.90;;;1.10;;
73454;SDS011;61690;51.824;6.306;2023-11-21T06:05:35;3.33;;;0.90;;
73454;SDS011;61690;51.824;6.306;2023-11-21T06:08:01;3.63;;;1.20;;
73454;SDS011;61690;51.824;6.306;2023-11-21T06:10:26;3.90;;;1.10;;
73454;SDS011;61690;51.824;6.306;2023-11-21T06:12:53;3.95;;;1.00;;
73454;SDS011;61690;51.824;6.306;2023-11-21T06:15:18;4.47;;;1.17;;
73454;SDS011;61690;51.824;6.306;2023-11-21T06:17:48;4.88;;;1.10;;
73454;SDS011;61690;51.824;6.306;2023-11-21T06:20:20;3.58;;;1.08;;
73454;SDS011;61690;51.824;6.306;2023-11-21T06:22:46;3.77;;;0.90;;
73454;SDS011;61690;51.824;6.306;2023-11-21T06:25:13;4.00;;;1.20;;
73454;SDS011;61690;51.824;6.306;2023-11-21T06:27:40;3.53;;;1.08;;
73454;SDS011;61690;51.824;6.306;2023-11-21T06:30:07;3.60;;;1.23;;
73454;SDS011;61690;51.824;6.306;2023-11-21T06:32:35;3.75;;;1.20;;
73454;SDS011;61690;51.824;6.306;2023-11-21T06:35:01;3.40;;;0.87;;
73454;SDS011;61690;51.824;6.306;2023-11-21T06:37:27;3.63;;;1.13;;
73454;SDS011;61690;51.824;6.306;2023-11-21T06:39:53;3.80;;;0.90;;
73454;SDS011;61690;51.824;6.306;2023-11-21T06:42:18;3.83;;;1.20;;
73454;SDS011;61690;51.824;6.306;2023-11-21T06:44:44;3.53;;;1.10;;
73454;SDS011;61690;51.824;6.306;2023-11-21T06:47:10;3.80;;;1.20;;
73454;SDS011;61690;51.824;6.306;2023-11-21T06:49:35;3.73;;;1.10;;
73454;SDS011;61690;51.824;6.306;2023-11-21T06:52:01;3.47;;;0.97;;
73454;SDS011;61690;51.824;6.306;2023-11-21T06:54:28;4.03;;;1.05;;
73454;SDS011;61690;51.824;6.306;2023-11-21T06:56:54;3.97;;;1.10;;
73454;SDS011;61690;51.824;6.306;2023-11-21T06:59:19;3.27;;;1.10;;
73454;SDS011;61690;51.824;6.306;2023-11-21T07:01:44;3.73;;;0.90;;
73454;SDS011;61690;51.824;6.306;2023-11-21T07:04:10;3.80;;;1.03;;
73454;SDS011;61690;51.824;6.306;2023-11-21T07:06:35;4.03;;;0.90;;
73454;SDS011;61690;51.824;6.306;2023-11-21T07:09:00;3.33;;;1.00;;
73454;SDS011;61690;51.824;6.306;2023-11-21T07:11:26;3.90;;;1.08;;
73454;SDS011;61690;51.824;6.306;2023-11-21T07:13:52;3.40;;;1.08;;
73454;SDS011;61690;51.824;6.306;2023-11-21T07:16:18;3.63;;;1.00;;
73454;SDS011;61690;51.824;6.306;2023-11-21T07:18:43;3.90;;;0.90;;
73454;SDS011;61690;51.824;6.306;2023-11-21T07:21:09;3.53;;;0.90;;
73454;SDS011;61690;51.824;6.306;2023-11-21T07:23:37;3.50;;;1.17;;
73454;SDS011;61690;51.824;6.306;2023-11-21T07:26:02;3.73;;;1.20;;
73454;SDS011;61690;51.824;6.306;2023-11-21T07:28:28;3.45;;;1.10;;
73454;SDS011;61690;51.824;6.306;2023-11-21T07:30:54;3.67;;;0.90;;
73454;SDS011;61690;51.824;6.306;2023-11-21T07:33:20;3.93;;;1.20;;
73454;SDS011;61690;51.824;6.306;2023-11-21T07:35:46;3.33;;;1.00;;
73454;SDS011;61690;51.824;6.306;2023-11-21T07:38:11;3.80;;;1.20;;
73454;SDS011;61690;51.824;6.306;2023-11-21T07:40:38;3.60;;;0.80;;
73454;SDS011;61690;51.824;6.306;2023-11-21T07:43:04;3.63;;;1.30;;
73454;SDS011;61690;51.824;6.306;2023-11-21T07:45:30;4.05;;;1.27;;
73454;SDS011;61690;51.824;6.306;2023-11-21T07:47:56;3.53;;;0.90;;
73454;SDS011;61690;51.824;6.306;2023-11-21T07:50:21;3.37;;;0.93;;
73454;SDS011;61690;51.824;6.306;2023-11-21T07:52:47;3.70;;;1.02;;
73454;SDS011;61690;51.824;6.306;2023-11-21T07:55:14;3.88;;;1.30;;
73454;SDS011;61690;51.824;6.306;2023-11-21T07:57:40;3.97;;;1.17;;
73454;SDS011;61690;51.824;6.306;2023-11-21T08:00:05;4.03;;;1.10;;
73454;SDS011;61690;51.824;6.306;2023-11-21T08:02:34;3.63;;;1.00;;
73454;SDS011;61690;51.824;6.306;2023-11-21T08:04:59;3.80;;;1.20;;
73454;SDS011;61690;51.824;6.306;2023-11-21T08:07:25;3.35;;;0.93;;
73454;SDS011;61690;51.824;6.306;2023-11-21T08:09:51;3.37;;;1.03;;
73454;SDS011;61690;51.824;6.306;2023-11-21T08:12:17;4.55;;;0.90;;
73454;SDS011;61690;51.824;6.306;2023-11-21T08:14:43;3.65;;;1.08;;
73454;SDS011;61690;51.824;6.306;2023-11-21T08:17:09;4.10;;;1.20;;
73454;SDS011;61690;51.824;6.306;2023-11-21T08:19:35;3.97;;;1.10;;
73454;SDS011;61690;51.824;6.306;2023-11-21T08:22:01;3.45;;;1.00;;
73454;SDS011;61690;51.824;6.306;2023-11-21T08:24:27;3.40;;;1.13;;
73454;SDS011;61690;51.824;6.306;2023-11-21T08:26:52;3.50;;;1.20;;
73454;SDS011;61690;51.824;6.306;2023-11-21T08:29:19;3.20;;;0.95;;
73454;SDS011;61690;51.824;6.306;2023-11-21T08:31:44;3.73;;;1.27;;
73454;SDS011;61690;51.824;6.306;2023-11-21T08:34:12;3.78;;;1.10;;
73454;SDS011;61690;51.824;6.306;2023-11-21T08:36:41;3.50;;;1.00;;
73454;SDS011;61690;51.824;6.306;2023-11-21T08:39:08;3.42;;;0.90;;
73454;SDS011;61690;51.824;6.306;2023-11-21T08:41:34;3.70;;;1.10;;
73454;SDS011;61690;51.824;6.306;2023-11-21T08:43:59;3.73;;;1.10;;
73454;SDS011;61690;51.824;6.306;2023-11-21T08:46:25;3.83;;;1.23;;
73454;SDS011;61690;51.824;6.306;2023-11-21T08:48:51;3.38;;;1.17;;
73454;SDS011;61690;51.824;6.306;2023-11-21T08:51:17;3.43;;;0.90;;
73454;SDS011;61690;51.824;6.306;2023-11-21T08:53:43;3.88;;;1.00;;
73454;SDS011;61690;51.824;6.306;2023-11-21T08:56:11;3.63;;;1.20;;
73454;SDS011;61690;51.824;6.306;2023-11-21T08:58:39;3.50;;;1.00;;
73454;SDS011;61690;51.824;6.306;2023-11-21T09:01:04;4.00;;;1.50;;
73454;SDS011;61690;51.824;6.306;2023-11-21T09:03:31;3.20;;;0.80;;
73454;SDS011;61690;51.824;6.306;2023-11-21T09:05:58;3.38;;;0.80;;
73454;SDS011;61690;51.824;6.306;2023-11-21T09:08:24;3.58;;;1.20;;
73454;SDS011;61690;51.824;6.306;2023-11-21T09:10:50;3.40;;;1.00;;
73454;SDS011;61690;51.824;6.306;2023-11-21T09:13:15;3.37;;;0.87;;
73454;SDS011;61690;51.824;6.306;2023-11-21T09:15:41;3.55;;;1.10;;
73454;SDS011;61690;51.824;6.306;2023-11-21T09:18:08;3.38;;;1.00;;
73454;SDS011;61690;51.824;6.306;2023-11-21T09:20:35;3.50;;;1.00;;
73454;SDS011;61690;51.824;6.306;2023-11-21T09:23:00;3.37;;;1.00;;
73454;SDS011;61690;51.824;6.306;2023-11-21T09:25:25;3.80;;;1.50;;
73454;SDS011;61690;51.824;6.306;2023-11-21T09:27:51;3.93;;;1.20;;
73454;SDS011;61690;51.824;6.306;2023-11-21T09:30:16;3.33;;;1.27;;
73454;SDS011;61690;51.824;6.306;2023-11-21T09:32:41;3.73;;;1.20;;
73454;SDS011;61690;51.824;6.306;2023-11-21T09:35:10;3.78;;;1.30;;
73454;SDS011;61690;51.824;6.306;2023-11-21T09:37:36;3.60;;;1.05;;
73454;SDS011;61690;51.824;6.306;2023-11-21T09:40:02;3.40;;;1.00;;
73454;SDS011;61690;51.824;6.306;2023-11-21T09:42:30;3.10;;;0.90;;
73454;SDS011;61690;51.824;6.306;2023-11-21T09:47:53;3.45;;;1.10;;
73454;SDS011;61690;51.824;6.306;2023-11-21T09:50:22;3.20;;;0.90;;
73454;SDS011;61690;51.824;6.306;2023-11-21T09:53:02;3.35;;;1.13;;
73454;SDS011;61690;51.824;6.306;2023-11-21T09:55:39;3.60;;;1.00;;
73454;SDS011;61690;51.824;6.306;2023-11-21T09:58:08;3.13;;;0.80;;
73454;SDS011;61690;51.824;6.306;2023-11-21T10:00:37;3.60;;;1.20;;
73454;SDS011;61690;51.824;6.306;2023-11-21T10:03:07;3.53;;;1.00;;
73454;SDS011;61690;51.824;6.306;2023-11-21T10:05:33;3.40;;;1.13;;
73454;SDS011;61690;51.824;6.306;2023-11-21T10:07:59;3.63;;;1.20;;
73454;SDS011;61690;51.824;6.306;2023-11-21T10:10:25;3.93;;;1.20;;
73454;SDS011;61690;51.824;6.306;2023-11-21T10:12:54;3.30;;;1.00;;
73454;SDS011;61690;51.824;6.306;2023-11-21T10:15:22;3.60;;;1.20;;
73454;SDS011;61690;51.824;6.306;2023-11-21T10:17:51;3.93;;;1.40;;
73454;SDS011;61690;51.824;6.306;2023-11-21T10:20:18;3.70;;;1.20;;
73454;SDS011;61690;51.824;6.306;2023-11-21T10:22:44;3.70;;;1.10;;
73454;SDS011;61690;51.824;6.306;2023-11-21T10:25:10;3.45;;;1.20;;
73454;SDS011;61690;51.824;6.306;2023-11-21T10:27:39;3.35;;;0.90;;
73454;SDS011;61690;51.824;6.306;2023-11-21T10:30:06;3.30;;;1.00;;
73454;SDS011;61690;51.824;6.306;2023-11-21T10:32:44;4.07;;;1.00;;
73454;SDS011;61690;51.824;6.306;2023-11-21T10:35:09;3.70;;;1.20;;
73454;SDS011;61690;51.824;6.306;2023-11-21T10:37:38;3.30;;;0.90;;
73454;SDS011;61690;51.824;6.306;2023-11-21T10:40:07;3.40;;;1.20;;
73454;SDS011;61690;51.824;6.306;2023-11-21T10:42:36;3.60;;;1.20;;
73454;SDS011;61690;51.824;6.306;2023-11-21T10:45:05;3.67;;;1.30;;
73454;SDS011;61690;51.824;6.306;2023-11-21T10:47:41;3.28;;;1.00;;
73454;SDS011;61690;51.824;6.306;2023-11-21T10:50:07;3.90;;;1.40;;
73454;SDS011;61690;51.824;6.306;2023-11-21T10:52:36;3.60;;;1.10;;
73454;SDS011;61690;51.824;6.306;2023-11-21T10:55:18;3.47;;;0.90;;
73454;SDS011;61690;51.824;6.306;2023-11-21T10:57:46;2.92;;;0.82;;
73454;SDS011;61690;51.824;6.306;2023-11-21T11:00:15;3.38;;;1.00;;
73454;SDS011;61690;51.824;6.306;2023-11-21T11:02:44;3.10;;;0.80;;
73454;SDS011;61690;51.824;6.306;2023-11-21T11:05:12;3.40;;;1.10;;
73454;SDS011;61690;51.824;6.306;2023-11-21T11:07:40;4.32;;;1.20;;
73454;SDS011;61690;51.824;6.306;2023-11-21T11:10:08;3.88;;;1.20;;
73454;SDS011;61690;51.824;6.306;2023-11-21T11:12:39;3.22;;;0.80;;
73454;SDS011;61690;51.824;6.306;2023-11-21T11:15:05;3.37;;;1.00;;
73454;SDS011;61690;51.824;6.306;2023-11-21T11:17:31;3.40;;;1.05;;
73454;SDS011;61690;51.824;6.306;2023-11-21T11:19:58;3.20;;;1.00;;
73454;SDS011;61690;51.824;6.306;2023-11-21T11:22:34;3.90;;;1.40;;
73454;SDS011;61690;51.824;6.306;2023-11-21T11:28:14;3.08;;;0.90;;
73454;SDS011;61690;51.824;6.306;2023-11-21T11:38:20;3.38;;;1.17;;
73454;SDS011;61690;51.824;6.306;2023-11-21T11:40:48;3.92;;;1.00;;
73454;SDS011;61690;51.824;6.306;2023-11-21T11:43:24;3.30;;;0.90;;
73454;SDS011;61690;51.824;6.306;2023-11-21T11:45:50;3.28;;;0.90;;
73454;SDS011;61690;51.824;6.306;2023-11-21T11:48:18;3.50;;;1.10;;
73454;SDS011;61690;51.824;6.306;2023-11-21T11:51:00;3.47;;;0.90;;
73454;SDS011;61690;51.824;6.306;2023-11-21T11:53:28;3.40;;;1.20;;
73454;SDS011;61690;51.824;6.306;2023-11-21T11:58:51;3.25;;;1.10;;
73454;SDS011;61690;51.824;6.306;2023-11-21T12:01:20;3.50;;;1.13;;
73454;SDS011;61690;51.824;6.306;2023-11-21T12:06:48;3.65;;;1.15;;
73454;SDS011;61690;51.824;6.306;2023-11-21T12:09:20;3.58;;;1.17;;
73454;SDS011;61690;51.824;6.306;2023-11-21T12:11:48;3.60;;;1.10;;
73454;SDS011;61690;51.824;6.306;2023-11-21T12:14:14;3.58;;;1.10;;
73454;SDS011;61690;51.824;6.306;2023-11-21T12:16:40;3.60;;;0.90;;
73454;SDS011;61690;51.824;6.306;2023-11-21T12:19:05;3.35;;;0.93;;
73454;SDS011;61690;51.824;6.306;2023-11-21T12:21:31;3.00;;;0.90;;
73454;SDS011;61690;51.824;6.306;2023-11-21T12:23:57;3.20;;;0.95;;
73454;SDS011;61690;51.824;6.306;2023-11-21T12:26:23;3.20;;;0.93;;
73454;SDS011;61690;51.824;6.306;2023-11-21T12:28:52;3.47;;;1.05;;
73454;SDS011;61690;51.824;6.306;2023-11-21T12:31:21;3.38;;;1.10;;
73454;SDS011;61690;51.824;6.306;2023-11-21T12:33:47;3.25;;;1.00;;
73454;SDS011;61690;51.824;6.306;2023-11-21T12:36:13;3.60;;;1.20;;
73454;SDS011;61690;51.824;6.306;2023-11-21T12:38:38;3.93;;;1.20;;
73454;SDS011;61690;51.824;6.306;2023-11-21T12:41:03;3.33;;;1.20;;
73454;SDS011;61690;51.824;6.306;2023-11-21T12:43:29;3.30;;;0.95;;
73454;SDS011;61690;51.824;6.306;2023-11-21T12:46:08;3.85;;;1.10;;
73454;SDS011;61690;51.824;6.306;2023-11-21T12:48:37;3.70;;;1.27;;
73454;SDS011;61690;51.824;6.306;2023-11-21T12:51:13;3.45;;;1.10;;
73454;SDS011;61690;51.824;6.306;2023-11-21T12:53:41;3.63;;;1.38;;
73454;SDS011;61690;51.824;6.306;2023-11-21T12:56:07;3.90;;;1.20;;
73454;SDS011;61690;51.824;6.306;2023-11-21T12:58:35;5.30;;;1.20;;
73454;SDS011;61690;51.824;6.306;2023-11-21T13:01:01;3.47;;;1.20;;
73454;SDS011;61690;51.824;6.306;2023-11-21T13:03:30;3.60;;;1.40;;
73454;SDS011;61690;51.824;6.306;2023-11-21T13:05:56;3.28;;;0.90;;
73454;SDS011;61690;51.824;6.306;2023-11-21T13:08:24;3.50;;;1.10;;
73454;SDS011;61690;51.824;6.306;2023-11-21T13:10:51;3.40;;;1.10;;
73454;SDS011;61690;51.824;6.306;2023-11-21T13:13:19;3.28;;;1.15;;
73454;SDS011;61690;51.824;6.306;2023-11-21T13:15:49;3.83;;;1.10;;
73454;SDS011;61690;51.824;6.306;2023-11-21T13:18:17;3.97;;;1.23;;
73454;SDS011;61690;51.824;6.306;2023-11-21T13:20:43;3.73;;;1.20;;
73454;SDS011;61690;51.824;6.306;2023-11-21T13:23:10;3.67;;;1.38;;
73454;SDS011;61690;51.824;6.306;2023-11-21T13:25:40;3.60;;;1.30;;
73454;SDS011;61690;51.824;6.306;2023-11-21T13:28:07;3.60;;;1.30;;
73454;SDS011;61690;51.824;6.306;2023-11-21T13:30:33;3.60;;;1.23;;
73454;SDS011;61690;51.824;6.306;2023-11-21T13:32:59;3.80;;;1.27;;
73454;SDS011;61690;51.824;6.306;2023-11-21T13:35:31;3.70;;;1.33;;
73454;SDS011;61690;51.824;6.306;2023-11-21T13:38:14;3.40;;;1.10;;
73454;SDS011;61690;51.824;6.306;2023-11-21T13:40:42;4.30;;;1.58;;
73454;SDS011;61690;51.824;6.306;2023-11-21T13:43:14;3.60;;;1.27;;
73454;SDS011;61690;51.824;6.306;2023-11-21T13:45:40;3.50;;;1.20;;
73454;SDS011;61690;51.824;6.306;2023-11-21T13:48:06;3.58;;;1.25;;
73454;SDS011;61690;51.824;6.306;2023-11-21T13:50:38;3.40;;;1.00;;
73454;SDS011;61690;51.824;6.306;2023-11-21T13:53:09;3.90;;;1.15;;
73454;SDS011;61690;51.824;6.306;2023-11-21T13:55:48;3.40;;;1.20;;
73454;SDS011;61690;51.824;6.306;2023-11-21T13:58:14;3.20;;;1.20;;
73454;SDS011;61690;51.824;6.306;2023-11-21T14:00:44;3.42;;;1.20;;
73454;SDS011;61690;51.824;6.306;2023-11-21T14:03:13;3.87;;;1.30;;
73454;SDS011;61690;51.824;6.306;2023-11-21T14:05:45;3.58;;;1.10;;
73454;SDS011;61690;51.824;6.306;2023-11-21T14:08:20;3.72;;;1.10;;
73454;SDS011;61690;51.824;6.306;2023-11-21T14:10:47;4.22;;;1.33;;
73454;SDS011;61690;51.824;6.306;2023-11-21T14:13:18;6.68;;;1.40;;
73454;SDS011;61690;51.824;6.306;2023-11-21T14:15:44;3.80;;;1.40;;
73454;SDS011;61690;51.824;6.306;2023-11-21T14:18:11;4.35;;;1.20;;
73454;SDS011;61690;51.824;6.306;2023-11-21T14:20:42;3.47;;;1.27;;
73454;SDS011;61690;51.824;6.306;2023-11-21T14:23:07;3.40;;;1.10;;
73454;SDS011;61690;51.824;6.306;2023-11-21T14:25:36;3.50;;;1.20;;
73454;SDS011;61690;51.824;6.306;2023-11-21T14:28:05;3.90;;;1.37;;
73454;SDS011;61690;51.824;6.306;2023-11-21T14:30:33;3.72;;;1.20;;
73454;SDS011;61690;51.824;6.306;2023-11-21T14:33:01;3.83;;;1.30;;
73454;SDS011;61690;51.824;6.306;2023-11-21T14:35:27;3.40;;;1.20;;
73454;SDS011;61690;51.824;6.306;2023-11-21T14:37:52;3.67;;;1.10;;
73454;SDS011;61690;51.824;6.306;2023-11-21T14:40:18;3.90;;;1.50;;
73454;SDS011;61690;51.824;6.306;2023-11-21T14:42:49;3.97;;;1.50;;
73454;SDS011;61690;51.824;6.306;2023-11-21T14:45:17;4.15;;;1.20;;
73454;SDS011;61690;51.824;6.306;2023-11-21T14:47:44;5.10;;;1.40;;
73454;SDS011;61690;51.824;6.306;2023-11-21T14:50:16;3.90;;;1.42;;
73454;SDS011;61690;51.824;6.306;2023-11-21T14:53:11;4.68;;;1.40;;
73454;SDS011;61690;51.824;6.306;2023-11-21T14:55:40;3.80;;;1.10;;
73454;SDS011;61690;51.824;6.306;2023-11-21T14:58:15;4.85;;;1.60;;
73454;SDS011;61690;51.824;6.306;2023-11-21T15:00:48;3.80;;;1.27;;
73454;SDS011;61690;51.824;6.306;2023-11-21T15:03:16;4.03;;;1.40;;
73454;SDS011;61690;51.824;6.306;2023-11-21T15:06:00;3.78;;;1.20;;